Time;durP1;ratioP1;P1;durP2;ratioP2;P2;SDS_P1;SDS_P2;PMS_P1;PMS_P2;Temp;Humidity;BMP_temperature;BMP_pressure;BME280_temperature;BME280_humidity;BME280_pressure;Samples;Min_cycle;Max_cycle;Signal;HPM_P1;HPM_P2
2023/10/13 00:00:36;;;;;;;8.38;4.53;;;;;;;11.46;63.82;95296.25;5087176;28;20052;-74
2023/10/13 00:03:02;;;;;;;7.22;4.88;;;;;;;11.43;63.97;95283.50;5053809;28;20119;-73
2023/10/13 00:05:30;;;;;;;6.72;4.22;;;;;;;11.57;63.06;95291.03;5084484;28;20032;-72
2023/10/13 00:08:00;;;;;;;6.65;4.38;;;;;;;11.34;63.72;95273.81;5088694;28;20040;-73
2023/10/13 00:10:29;;;;;;;6.33;4.20;;;;;;;11.24;63.95;95267.69;5085950;28;20036;-73
2023/10/13 00:13:05;;;;;;;7.07;4.50;;;;;;;11.16;64.14;95265.66;5070191;28;20047;-73
2023/10/13 00:15:38;;;;;;;7.50;4.50;;;;;;;11.28;64.31;95279.47;5074114;28;20024;-73
2023/10/13 00:18:12;;;;;;;5.47;4.30;;;;;;;11.39;63.88;95274.25;5088868;28;20036;-73
2023/10/13 00:20:39;;;;;;;8.57;4.75;;;;;;;11.17;64.46;95265.56;5078929;28;20116;-72
2023/10/13 00:23:05;;;;;;;5.63;4.38;;;;;;;11.28;64.18;95263.88;5085802;28;20035;-73
2023/10/13 00:25:43;;;;;;;7.45;4.53;;;;;;;11.46;63.68;95257.22;5088085;28;20081;-73
2023/10/13 00:28:09;;;;;;;5.40;4.03;;;;;;;11.17;64.06;95247.34;5086411;28;20028;-73
2023/10/13 00:30:34;;;;;;;5.15;3.70;;;;;;;11.31;63.94;95255.81;5085923;28;20021;-73
2023/10/13 00:33:00;;;;;;;8.52;4.25;;;;;;;11.34;63.82;95272.03;5079182;28;20039;-73
2023/10/13 00:35:35;;;;;;;5.80;4.50;;;;;;;11.27;64.07;95275.22;5071785;28;20024;-73
2023/10/13 00:38:04;;;;;;;5.68;4.70;;;;;;;11.16;64.37;95263.88;5058739;28;20084;-73
2023/10/13 00:48:43;;;;;;;7.30;4.30;;;;;;;11.08;64.17;95240.25;5080883;28;20074;-73
2023/10/13 00:53:56;;;;;;;6.65;4.70;;;;;;;11.15;64.56;95270.03;5093533;28;20043;-72
2023/10/13 00:56:23;;;;;;;6.25;4.57;;;;;;;11.37;64.23;95284.81;5073921;28;20024;-73
2023/10/13 00:58:52;;;;;;;4.88;3.97;;;;;;;11.19;63.79;95265.44;5057940;28;20035;-73
2023/10/13 01:01:21;;;;;;;6.15;4.30;;;;;;;11.08;63.59;95274.06;5089187;28;20048;-72
2023/10/13 01:03:55;;;;;;;5.68;4.18;;;;;;;10.65;64.65;95269.56;5093279;28;20459;-73
2023/10/13 01:06:20;;;;;;;5.82;3.80;;;;;;;10.96;64.21;95288.84;5091591;28;20036;-73
2023/10/13 01:08:53;;;;;;;7.75;4.30;;;;;;;10.80;64.63;95284.94;5091370;28;20048;-73
2023/10/13 01:11:19;;;;;;;6.65;4.78;;;;;;;10.82;65.45;95288.25;5074725;28;20433;-73
2023/10/13 01:13:50;;;;;;;5.38;4.30;;;;;;;10.70;65.39;95290.84;5070244;28;20029;-72
2023/10/13 01:16:16;;;;;;;6.90;4.35;;;;;;;10.63;65.57;95288.81;5078085;28;20043;-72
2023/10/13 01:18:47;;;;;;;7.50;4.32;;;;;;;10.72;65.37;95278.53;5091440;28;20036;-73
2023/10/13 01:21:15;;;;;;;;;;;;;;;10.75;64.79;95280.06;5089689;28;20051;-73
2023/10/13 01:23:43;;;;;;;8.73;4.13;;;;;;;10.66;64.84;95288.56;5091322;28;20403;-73
2023/10/13 01:26:09;;;;;;;8.73;4.57;;;;;;;10.51;64.59;95270.59;5092723;28;20122;-73
2023/10/13 01:28:44;;;;;;;5.78;4.45;;;;;;;10.42;65.78;95280.84;5091178;28;20041;-73
2023/10/13 01:31:12;;;;;;;5.70;4.53;;;;;;;10.47;65.65;95279.59;5083929;28;20063;-73
2023/10/13 01:33:37;;;;;;;6.15;4.40;;;;;;;10.27;65.85;95247.28;5054971;28;20028;-73
2023/10/13 01:36:06;;;;;;;5.70;4.63;;;;;;;10.62;66.10;95290.59;5082941;28;20040;-72
2023/10/13 01:38:33;;;;;;;8.35;4.82;;;;;;;10.63;66.12;95287.03;5079532;28;20028;-73
2023/10/13 01:40:59;;;;;;;6.60;4.47;;;;;;;10.58;66.29;95281.34;5083280;28;20055;-72
2023/10/13 01:43:24;;;;;;;9.25;4.53;;;;;;;10.56;66.46;95283.25;5071106;28;20078;-73
2023/10/13 01:45:49;;;;;;;6.55;4.78;;;;;;;10.51;66.70;95291.38;5074942;28;20024;-73
2023/10/13 01:48:21;;;;;;;6.72;4.70;;;;;;;10.53;66.90;95278.28;5073430;28;20109;-73
2023/10/13 01:50:47;;;;;;;6.93;4.60;;;;;;;10.54;66.18;95279.94;5067513;28;20027;-73
2023/10/13 01:53:17;;;;;;;6.85;4.50;;;;;;;10.58;65.93;95286.53;5073380;28;20034;-72
2023/10/13 01:55:45;;;;;;;4.68;3.83;;;;;;;10.76;65.48;95301.72;5088433;28;20529;-73
2023/10/13 01:58:17;;;;;;;9.05;4.63;;;;;;;10.59;65.68;95296.00;5083896;28;20185;-73
2023/10/13 02:00:43;;;;;;;5.25;4.30;;;;;;;10.55;65.76;95288.56;5088495;28;20570;-73
2023/10/13 02:03:16;;;;;;;6.25;4.13;;;;;;;10.19;65.76;95240.97;5089575;28;20094;-73
2023/10/13 02:05:53;;;;;;;6.85;4.60;;;;;;;10.61;65.46;95294.09;5090695;28;20031;-73
2023/10/13 02:08:23;;;;;;;8.18;4.78;;;;;;;10.40;66.24;95280.16;5090433;28;20059;-73
2023/10/13 02:10:53;;;;;;;9.27;4.55;;;;;;;10.30;66.85;95287.78;5069644;28;20030;-72
2023/10/13 02:13:22;;;;;;;6.90;4.60;;;;;;;10.32;66.66;95274.69;5090787;28;20043;-73
2023/10/13 02:15:48;;;;;;;7.72;4.68;;;;;;;10.21;66.78;95268.50;5088738;28;20572;-73
2023/10/13 02:18:26;;;;;;;7.85;4.80;;;;;;;10.00;67.14;95262.28;5090543;28;20039;-73
2023/10/13 02:20:55;;;;;;;5.40;4.18;;;;;;;9.53;68.02;95277.78;5066745;28;20077;-73
2023/10/13 02:23:24;;;;;;;5.90;4.05;;;;;;;9.78;68.12;95278.59;5071614;28;20094;-72
2023/10/13 02:26:00;;;;;;;7.18;5.55;;;;;;;9.63;69.41;95283.09;5076148;28;20031;-73
2023/10/13 02:28:28;;;;;;;7.20;5.63;;;;;;;9.57;69.00;95262.81;5090618;28;20036;-73
2023/10/13 02:30:54;;;;;;;5.90;4.50;;;;;;;9.43;69.12;95281.13;5091422;28;20402;-72
2023/10/13 02:33:22;;;;;;;7.43;5.13;;;;;;;9.46;69.42;95275.72;5091929;28;20028;-73
2023/10/13 02:35:54;;;;;;;6.63;4.80;;;;;;;9.55;68.98;95281.06;5074207;28;20039;-72
2023/10/13 02:38:27;;;;;;;6.57;5.22;;;;;;;9.60;69.11;95280.75;5074477;28;20032;-73
2023/10/13 02:40:54;;;;;;;9.55;4.90;;;;;;;9.65;68.79;95277.81;5090669;28;20023;-73
2023/10/13 02:43:21;;;;;;;6.75;4.60;;;;;;;9.68;68.36;95275.84;5090482;28;20035;-73
2023/10/13 02:45:57;;;;;;;9.32;4.93;;;;;;;9.45;68.87;95287.03;5073807;28;20099;-72
2023/10/13 02:48:23;;;;;;;6.40;5.00;;;;;;;9.46;68.90;95270.53;5090412;28;20040;-73
2023/10/13 02:51:02;;;;;;;6.28;5.03;;;;;;;9.39;68.86;95280.53;5091664;28;20027;-73
2023/10/13 02:53:28;;;;;;;8.45;5.07;;;;;;;9.51;69.04;95284.81;5074306;28;20047;-73
2023/10/13 02:55:56;;;;;;;6.35;4.80;;;;;;;9.33;69.09;95266.22;5055960;28;20157;-72
2023/10/13 02:58:22;;;;;;;8.55;4.70;;;;;;;9.11;69.67;95291.97;5091452;28;20064;-73
2023/10/13 03:00:47;;;;;;;7.30;4.90;;;;;;;8.68;70.36;95292.31;5090920;28;20105;-73
2023/10/13 03:03:18;;;;;;;5.80;4.47;;;;;;;8.98;69.54;95301.53;5073244;28;20024;-72
2023/10/13 03:05:43;;;;;;;8.05;5.28;;;;;;;8.85;69.98;95311.91;5090242;28;20115;-72
2023/10/13 03:08:10;;;;;;;8.15;4.75;;;;;;;8.87;70.19;95310.03;5090063;28;20126;-73
2023/10/13 03:10:39;;;;;;;8.05;5.65;;;;;;;8.84;69.84;95297.31;5089976;28;20024;-73
2023/10/13 03:13:08;;;;;;;10.93;5.70;;;;;;;8.68;70.75;95303.50;5090050;28;20039;-72
2023/10/13 03:15:35;;;;;;;7.22;5.05;;;;;;;8.85;70.47;95317.91;5073499;28;20455;-72
2023/10/13 03:18:01;;;;;;;8.35;5.10;;;;;;;8.91;70.22;95319.25;5089990;28;20036;-72
2023/10/13 03:20:32;;;;;;;7.22;5.13;;;;;;;8.74;70.15;95281.53;5089666;28;20089;-73
2023/10/13 03:22:58;;;;;;;;;;;;;;;8.77;70.15;95314.19;5090422;28;20028;-72
2023/10/13 03:25:24;;;;;;;9.93;5.10;;;;;;;8.69;70.66;95314.69;5091057;28;19916;-72
2023/10/13 03:30:16;;;;;;;6.80;5.20;;;;;;;8.75;70.49;95313.44;5091157;28;20036;-72
2023/10/13 03:32:50;;;;;;;6.35;4.63;;;;;;;8.59;70.39;95298.97;5089771;28;20065;-72
2023/10/13 03:35:24;;;;;;;6.53;4.53;;;;;;;8.60;70.55;95304.97;5074492;28;20044;-72
2023/10/13 03:37:52;;;;;;;7.63;5.05;;;;;;;8.36;70.73;95295.28;5089991;28;20035;-73
2023/10/13 03:43:06;;;;;;;6.32;4.97;;;;;;;8.24;72.18;95316.78;5069663;28;20510;-73
2023/10/13 03:45:39;;;;;;;6.18;4.57;;;;;;;8.35;71.95;95308.31;5069261;28;20028;-73
2023/10/13 03:51:14;;;;;;;9.05;5.38;;;;;;;8.31;72.07;95299.13;5069793;28;20109;-72
2023/10/13 03:53:52;;;;;;;7.22;5.13;;;;;;;8.26;73.69;95289.88;5070648;28;20518;-72
2023/10/13 03:56:26;;;;;;;8.45;5.43;;;;;;;8.17;73.47;95264.63;5069356;28;20104;-72
2023/10/13 03:58:53;;;;;;;9.07;5.35;;;;;;;8.31;73.62;95278.41;5067234;28;20456;-72
2023/10/13 04:01:24;;;;;;;6.88;5.13;;;;;;;8.03;73.78;95275.88;5085066;28;20040;-73
2023/10/13 04:04:10;;;;;;;10.20;5.43;;;;;;;8.17;73.22;95271.56;5071138;28;20486;-73
2023/10/13 04:17:14;;;;;;;8.68;5.68;;;;;;;8.45;74.28;95261.03;5075957;28;20035;-72
2023/10/13 04:20:12;;;;;;;10.05;6.00;;;;;;;8.33;74.45;95256.66;5072551;28;20418;-73
2023/10/13 04:23:17;;;;;;;8.77;5.78;;;;;;;8.02;75.17;95248.34;5086691;28;20039;-73
2023/10/13 04:28:33;;;;;;;7.90;5.35;;;;;;;8.35;73.85;95267.72;5089756;28;20048;-73
2023/10/13 04:33:35;;;;;;;8.25;5.43;;;;;;;8.31;73.04;95276.66;5088987;28;20040;-72
2023/10/13 04:36:13;;;;;;;7.72;5.72;;;;;;;8.42;72.94;95294.09;5089154;28;20059;-72
2023/10/13 04:41:41;;;;;;;7.37;5.57;;;;;;;8.51;72.69;95296.06;5088822;28;20042;-72
2023/10/13 04:49:28;;;;;;;6.50;5.13;;;;;;;8.61;71.97;95293.66;5074114;28;20068;-73
2023/10/13 04:52:38;;;;;;;7.55;5.28;;;;;;;8.65;71.51;95313.25;5069500;28;20070;-73
2023/10/13 06:29:40;;;;;;;16.77;7.00;;;;;;;15.64;52.75;95383.88;5079120;28;20560;-73
2023/10/13 06:32:12;;;;;;;12.38;6.95;;;;;;;16.80;49.91;95379.75;5075076;28;20028;-71
2023/10/13 06:34:42;;;;;;;11.93;5.93;;;;;;;17.93;46.98;95388.50;5073738;28;20028;-70
2023/10/13 06:37:22;;;;;;;10.43;5.60;;;;;;;19.28;43.99;95390.03;5061932;28;20036;-72
2023/10/13 06:39:56;;;;;;;7.13;5.30;;;;;;;20.37;41.00;95388.53;5072606;28;20032;-73
2023/10/13 06:42:27;;;;;;;8.43;5.00;;;;;;;21.29;38.87;95377.19;5081762;28;20548;-73
2023/10/13 06:44:55;;;;;;;6.43;4.95;;;;;;;21.74;38.12;95378.06;5067969;28;20036;-73
2023/10/13 06:47:21;;;;;;;7.20;4.68;;;;;;;22.74;35.52;95383.56;5086140;28;20044;-73
2023/10/13 06:49:48;;;;;;;6.85;5.05;;;;;;;23.16;35.01;95376.63;5075254;28;20032;-73
2023/10/13 06:52:15;;;;;;;7.70;4.82;;;;;;;23.82;33.51;95373.66;5073262;28;20024;-73
2023/10/13 06:54:42;;;;;;;10.90;5.30;;;;;;;24.07;33.22;95368.69;5089690;28;20035;-72
2023/10/13 06:57:13;;;;;;;9.30;5.65;;;;;;;24.48;32.95;95365.16;5070275;28;20019;-73
2023/10/13 06:59:40;;;;;;;8.55;5.18;;;;;;;24.88;31.63;95356.50;5060450;28;20039;-73
2023/10/13 07:02:06;;;;;;;10.75;5.55;;;;;;;24.76;31.86;95356.25;5065025;28;20069;-73
2023/10/13 07:04:34;;;;;;;12.90;5.93;;;;;;;24.82;31.73;95350.13;5078368;28;20032;-73
2023/10/13 07:07:00;;;;;;;7.30;5.05;;;;;;;25.58;31.18;95354.25;5072598;28;20039;-72
2023/10/13 07:10:08;;;;;;;9.13;5.40;;;;;;;25.80;30.66;95355.63;5085867;28;20044;-72
2023/10/13 07:12:22;;;;;;;9.65;5.72;;;;;;;26.58;29.48;95344.09;5072241;28;21205;-74
2023/10/13 07:15:10;;;;;;;8.75;5.80;;;;;;;26.40;29.44;95320.81;5062600;28;20473;-74
2023/10/13 07:17:39;;;;;;;10.30;5.55;;;;;;;26.55;29.19;95336.56;5073422;28;20067;-74
2023/10/13 07:20:15;;;;;;;10.38;5.30;;;;;;;26.67;29.08;95337.50;5080380;28;20024;-75
2023/10/13 07:22:45;;;;;;;18.98;14.07;;;;;;;26.90;29.46;95323.59;5070174;28;20062;-75
2023/10/13 07:25:18;;;;;;;10.70;9.32;;;;;;;27.94;28.23;95339.09;5087819;28;20032;-75
2023/10/13 07:27:43;;;;;;;8.70;6.78;;;;;;;28.41;26.77;95337.50;5071908;28;20411;-75
2023/10/13 07:32:38;;;;;;;11.25;5.00;;;;;;;28.22;26.76;95350.09;5088335;28;20118;-73
2023/10/13 07:35:11;;;;;;;7.65;5.93;;;;;;;28.33;26.83;95345.81;5072321;28;20036;-74
2023/10/13 07:37:38;;;;;;;11.18;5.90;;;;;;;27.91;27.11;95343.03;5068752;28;20520;-72
2023/10/13 07:40:21;;;;;;;10.88;6.00;;;;;;;27.62;27.24;95342.69;5083958;28;20379;-72
2023/10/13 07:42:47;;;;;;;12.45;5.65;;;;;;;28.19;26.03;95339.00;5068035;28;20024;-73
2023/10/13 07:45:12;;;;;;;12.07;5.85;;;;;;;28.06;26.79;95340.00;5055788;28;20028;-74
2023/10/13 07:47:39;;;;;;;13.65;6.22;;;;;;;28.03;26.55;95337.78;5083871;28;20421;-74
2023/10/13 07:50:06;;;;;;;12.00;5.80;;;;;;;27.31;27.11;95337.47;5090589;28;20028;-74
2023/10/13 07:52:40;;;;;;;9.98;5.68;;;;;;;26.57;28.20;95337.13;5075056;28;20064;-74
2023/10/13 07:55:13;;;;;;;9.48;6.15;;;;;;;26.72;27.97;95308.34;5072784;28;20120;-78
2023/10/13 07:57:55;;;;;;;9.65;5.85;;;;;;;26.38;28.20;95316.72;5091293;28;20478;-78
2023/10/13 08:03:31;;;;;;;10.88;5.40;;;;;;;25.25;30.19;95328.50;5069681;28;20047;-77
2023/10/13 08:08:35;;;;;;;11.32;6.03;;;;;;;23.87;32.76;95327.97;5081242;28;20082;-77
2023/10/13 08:11:34;;;;;;;13.10;6.10;;;;;;;23.26;33.47;95291.47;5074941;28;20058;-76
2023/10/13 08:14:00;;;;;;;11.38;5.93;;;;;;;22.97;34.24;95324.31;5085359;28;20501;-75
2023/10/13 08:19:16;;;;;;;10.13;5.18;;;;;;;21.58;36.74;95324.34;5091677;28;20094;-74
2023/10/13 08:21:58;;;;;;;13.32;5.40;;;;;;;21.63;37.18;95323.81;5090721;28;20043;-75
2023/10/13 08:27:34;;;;;;;11.68;6.00;;;;;;;20.97;38.96;95321.81;5069058;28;20674;-75
2023/10/13 08:37:28;;;;;;;23.35;8.10;;;;;;;20.57;40.55;95336.16;5078173;28;20027;-74
2023/10/13 08:40:19;;;;;;;14.57;7.78;;;;;;;20.44;40.90;95331.44;5078563;28;20024;-75
2023/10/13 08:48:07;;;;;;;11.48;6.75;;;;;;;20.09;42.22;95344.19;5074173;28;20042;-74
2023/10/13 08:56:14;;;;;;;11.15;6.72;;;;;;;20.02;42.40;95330.03;5078110;28;20406;-75
2023/10/13 09:04:27;;;;;;;12.65;6.57;;;;;;;20.02;41.80;95319.47;5079533;28;20097;-75
2023/10/13 09:09:58;;;;;;;19.33;7.03;;;;;;;19.86;42.84;95330.09;5091333;28;20115;-74
2023/10/13 09:17:48;;;;;;;10.32;6.38;;;;;;;20.31;41.01;95315.38;5082145;28;20064;-75
2023/10/13 09:25:37;;;;;;;11.05;6.78;;;;;;;19.75;42.32;95320.78;5087150;28;20040;-74
2023/10/13 09:28:18;;;;;;;13.55;6.03;;;;;;;19.83;42.82;95312.00;5071486;28;20025;-74
2023/10/13 09:30:56;;;;;;;14.05;6.85;;;;;;;20.22;42.45;95311.94;5069350;28;20029;-75
2023/10/13 09:33:50;;;;;;;14.02;6.30;;;;;;;20.42;42.05;95316.78;5075958;28;20024;-75
2023/10/13 09:36:17;;;;;;;15.32;6.88;;;;;;;20.53;41.65;95309.31;5071223;28;20410;-74
2023/10/13 09:38:48;;;;;;;10.82;7.05;;;;;;;20.88;40.81;95299.13;5073501;28;20036;-74
2023/10/13 09:41:26;;;;;;;14.65;6.78;;;;;;;20.69;40.57;95281.13;5073434;28;20020;-74
2023/10/13 09:43:51;;;;;;;16.27;7.90;;;;;;;20.72;40.48;95270.22;5091630;28;20040;-75
2023/10/13 09:46:23;;;;;;;17.85;7.10;;;;;;;20.80;40.31;95291.28;5054874;28;20032;-75
2023/10/13 09:49:04;;;;;;;18.70;8.00;;;;;;;20.68;40.77;95287.44;5090902;28;20043;-74
2023/10/13 09:51:31;;;;;;;;;;;;;;;20.90;39.93;95277.84;5076277;28;20043;-75
2023/10/13 09:54:16;;;;;;;12.88;7.20;;;;;;;21.29;38.79;95280.25;5078705;28;19955;-73
2023/10/13 09:56:55;;;;;;;20.58;8.40;;;;;;;21.28;39.36;95285.69;5059671;28;20028;-77
2023/10/13 09:59:34;;;;;;;15.38;8.50;;;;;;;21.08;39.44;95275.66;5064581;28;20131;-76
2023/10/13 10:02:08;;;;;;;16.08;8.55;;;;;;;20.96;40.07;95280.56;5081403;28;20044;-76
2023/10/13 10:04:41;;;;;;;16.27;8.40;;;;;;;21.19;39.92;95269.09;5089483;28;20032;-77
2023/10/13 10:07:08;;;;;;;14.23;7.85;;;;;;;21.33;38.98;95268.28;5062551;28;20177;-76
2023/10/13 10:09:37;;;;;;;18.05;8.20;;;;;;;21.30;39.50;95262.56;5081126;28;20028;-76
2023/10/13 10:12:22;;;;;;;15.32;8.20;;;;;;;21.64;38.43;95276.03;5069466;28;20115;-76
2023/10/13 10:15:43;;;;;;;11.80;7.63;;;;;;;21.49;38.90;95271.78;5079161;28;20036;-76
2023/10/13 10:18:22;;;;;;;14.55;7.75;;;;;;;21.58;38.96;95262.75;5064978;28;20036;-76
2023/10/13 10:20:51;;;;;;;12.23;7.55;;;;;;;21.81;37.89;95252.88;5087905;28;20430;-76
2023/10/13 10:23:28;;;;;;;17.67;7.75;;;;;;;21.88;37.73;95260.88;5091902;28;20027;-76
2023/10/13 10:26:04;;;;;;;15.35;7.47;;;;;;;22.12;37.55;95256.25;5088900;28;20119;-76
2023/10/13 10:28:41;;;;;;;10.43;6.78;;;;;;;22.24;37.20;95254.78;5073459;28;20031;-76
2023/10/13 10:31:09;;;;;;;13.20;6.82;;;;;;;22.34;36.38;95236.75;5089744;28;20417;-76
2023/10/13 10:33:36;;;;;;;15.50;6.97;;;;;;;22.30;36.59;95241.59;5072510;28;20067;-76
2023/10/13 10:36:02;;;;;;;9.68;6.53;;;;;;;22.56;37.14;95237.56;5069961;28;20498;-76
2023/10/13 10:41:01;;;;;;;12.30;6.32;;;;;;;22.50;36.50;95239.13;5088451;28;20071;-76
2023/10/13 10:43:41;;;;;;;;;;;;;;;22.59;36.51;95236.34;5067504;28;20028;-76
2023/10/13 10:46:28;;;;;;;10.07;5.60;;;;;;;22.73;35.27;95231.00;5085820;28;19924;-76
2023/10/13 10:49:00;;;;;;;9.05;4.78;;;;;;;22.71;35.12;95222.41;5077344;28;20101;-76
2023/10/13 10:51:31;;;;;;;8.20;4.78;;;;;;;22.90;34.11;95228.03;5069838;28;20112;-75
2023/10/13 10:53:57;;;;;;;11.18;4.65;;;;;;;22.98;32.20;95217.31;5081744;28;20028;-74
2023/10/13 10:56:25;;;;;;;6.18;4.43;;;;;;;23.14;33.07;95224.97;5066060;28;20043;-73
2023/10/13 10:58:58;;;;;;;10.38;6.63;;;;;;;23.24;33.39;95221.16;5056286;28;20024;-73
2023/10/13 11:01:24;;;;;;;7.45;4.20;;;;;;;23.18;31.73;95226.22;5071676;28;20052;-74
2023/10/13 11:04:14;;;;;;;7.25;4.30;;;;;;;23.23;33.11;95220.31;5089865;28;20409;-74
2023/10/13 11:06:45;;;;;;;9.50;3.92;;;;;;;23.22;32.53;95204.63;5079666;28;20024;-73
2023/10/13 11:11:54;;;;;;;;;;;;;;;23.14;32.45;95222.31;5087261;28;20513;-74
2023/10/13 11:14:22;;;;;;;7.05;4.60;;;;;;;23.23;32.12;95199.13;5089671;28;20035;-74
2023/10/13 11:16:53;;;;;;;6.00;3.83;;;;;;;23.28;32.17;95209.97;5084534;28;20032;-74
2023/10/13 11:19:40;;;;;;;8.43;3.75;;;;;;;23.01;32.58;95176.38;5060419;28;20031;-78
2023/10/13 11:25:02;;;;;;;5.70;3.53;;;;;;;23.27;31.81;95196.94;5069339;28;20052;-75
2023/10/13 11:30:19;;;;;;;4.35;2.75;;;;;;;23.31;31.81;95203.44;5086953;28;20409;-75
2023/10/13 11:32:45;;;;;;;5.70;3.75;;;;;;;23.55;31.70;95194.19;5088970;28;20065;-75
2023/10/13 11:35:20;;;;;;;5.32;2.88;;;;;;;23.60;32.05;95195.22;5089064;28;20027;-75
2023/10/13 11:37:55;;;;;;;5.43;2.75;;;;;;;23.71;31.55;95183.28;5089360;28;20036;-75
2023/10/13 11:40:43;;;;;;;11.32;6.95;;;;;;;23.64;31.54;95177.91;5086284;28;20534;-75
2023/10/13 11:43:13;;;;;;;10.25;3.33;;;;;;;23.77;30.57;95181.66;5078941;28;20443;-75
2023/10/13 11:45:52;;;;;;;4.93;2.50;;;;;;;23.56;30.70;95174.59;5082850;28;20054;-75
2023/10/13 11:48:23;;;;;;;4.28;2.30;;;;;;;23.85;29.84;95179.63;5056934;28;20459;-74
2023/10/13 11:50:49;;;;;;;6.55;2.78;;;;;;;23.81;30.00;95177.56;5071904;28;20036;-75
2023/10/13 11:53:15;;;;;;;12.13;3.05;;;;;;;23.96;30.32;95175.56;5072819;28;20036;-75
2023/10/13 11:55:40;;;;;;;8.07;2.90;;;;;;;23.93;30.83;95164.53;5072223;28;20031;-75
2023/10/13 11:58:05;;;;;;;6.25;2.55;;;;;;;23.92;30.50;95174.31;5074519;28;20032;-75
2023/10/13 12:06:18;;;;;;;10.75;3.33;;;;;;;23.98;30.17;95157.59;5086599;28;20035;-74
2023/10/13 12:08:49;;;;;;;6.40;2.55;;;;;;;23.95;30.23;95163.31;5085889;28;20683;-75
2023/10/13 12:11:39;;;;;;;5.13;2.88;;;;;;;24.09;30.31;95146.38;5058191;28;20434;-75
2023/10/13 12:14:11;;;;;;;4.53;2.35;;;;;;;24.30;29.68;95149.88;5079604;28;20143;-75
2023/10/13 12:16:37;;;;;;;4.35;2.60;;;;;;;24.25;30.01;95142.53;5076948;28;20314;-75
2023/10/13 12:19:05;;;;;;;8.13;3.30;;;;;;;24.09;30.14;95132.31;5079147;28;20044;-75
2023/10/13 12:21:30;;;;;;;7.70;2.75;;;;;;;24.07;30.09;95140.50;5081300;28;20124;-75
2023/10/13 12:23:56;;;;;;;6.18;3.10;;;;;;;24.01;30.47;95104.13;5084114;28;20024;-76
2023/10/13 12:26:32;;;;;;;7.88;2.88;;;;;;;24.34;30.06;95144.97;5081087;28;20759;-74
2023/10/13 12:29:06;;;;;;;4.05;2.28;;;;;;;24.20;29.99;95147.63;5072622;28;20043;-75
2023/10/13 12:31:32;;;;;;;6.80;2.30;;;;;;;24.23;29.76;95143.75;5079586;28;20055;-74
2023/10/13 12:34:06;;;;;;;4.78;2.08;;;;;;;24.42;29.37;95150.91;5064154;28;20032;-75
2023/10/13 12:36:41;;;;;;;3.13;2.03;;;;;;;24.43;29.18;95138.44;5084392;28;20482;-74
2023/10/13 12:52:19;;;;;;;6.47;2.50;;;;;;;24.54;30.00;95129.88;5081615;28;20104;-75
2023/10/13 12:55:10;;;;;;;9.52;2.78;;;;;;;24.46;29.68;95127.44;5069026;28;20039;-75
2023/10/13 12:57:34;;;;;;;4.32;2.20;;;;;;;24.68;29.43;95136.00;5082286;28;20052;-76
2023/10/13 12:59:59;;;;;;;6.00;2.25;;;;;;;24.55;30.11;95125.41;5077825;28;20029;-75
2023/10/13 13:02:25;;;;;;;4.53;2.20;;;;;;;24.59;29.94;95129.28;5076742;28;20036;-76
2023/10/13 13:04:56;;;;;;;4.38;2.05;;;;;;;24.37;29.28;95126.00;5081828;28;20121;-74
2023/10/13 13:07:28;;;;;;;4.68;2.13;;;;;;;24.47;29.66;95129.91;5060512;28;20422;-79
2023/10/13 13:09:58;;;;;;;6.60;2.60;;;;;;;24.40;29.97;95117.59;5062700;28;20510;-75
2023/10/13 13:12:24;;;;;;;6.65;2.53;;;;;;;24.34;29.16;95129.88;5074094;28;20491;-75
2023/10/13 13:14:54;;;;;;;6.70;2.55;;;;;;;24.24;29.28;95129.47;5071298;28;20154;-74
2023/10/13 13:17:20;;;;;;;5.45;2.85;;;;;;;24.28;29.71;95128.03;5071930;28;20501;-75
2023/10/13 13:19:45;;;;;;;8.05;2.70;;;;;;;24.22;29.83;95126.22;5053850;28;20036;-75
2023/10/13 13:22:14;;;;;;;7.55;2.90;;;;;;;24.25;29.95;95117.84;5070454;28;20048;-74
2023/10/13 13:24:46;;;;;;;7.07;3.70;;;;;;;24.51;30.54;95124.97;5054323;28;20021;-75
2023/10/13 13:27:22;;;;;;;6.97;2.63;;;;;;;24.39;30.27;95122.09;5070563;28;20097;-74
2023/10/13 13:29:47;;;;;;;5.45;2.40;;;;;;;24.22;29.83;95099.66;5053979;28;20567;-75
2023/10/13 13:32:23;;;;;;;4.35;2.20;;;;;;;24.22;30.11;95116.41;5052974;28;20032;-75
2023/10/13 13:35:05;;;;;;;9.73;2.67;;;;;;;24.25;29.89;95112.53;5069866;28;20618;-75
2023/10/13 13:37:34;;;;;;;8.27;2.67;;;;;;;24.33;29.41;95135.41;5054783;28;20120;-75
2023/10/13 13:40:13;;;;;;;6.07;2.90;;;;;;;24.42;30.08;95123.53;5069008;28;20029;-75
2023/10/13 13:42:40;;;;;;;6.82;4.00;;;;;;;24.51;30.01;95120.47;5054710;28;20193;-75
2023/10/13 13:45:11;;;;;;;4.72;2.63;;;;;;;24.40;31.40;95126.38;5070871;28;20040;-75
2023/10/13 13:47:36;;;;;;;4.72;2.40;;;;;;;24.41;28.88;95128.03;5071390;28;20029;-75
2023/10/13 13:50:06;;;;;;;7.70;2.50;;;;;;;24.33;29.04;95127.44;5071453;28;20032;-74
2023/10/13 13:52:45;;;;;;;5.22;2.55;;;;;;;24.31;29.44;95132.94;5057488;28;20111;-75
2023/10/13 13:55:11;;;;;;;10.50;8.68;;;;;;;24.31;29.62;95135.59;5081127;28;20506;-75
2023/10/13 13:57:41;;;;;;;11.63;5.32;;;;;;;24.30;29.29;95139.28;5074515;28;20036;-75
2023/10/13 14:00:07;;;;;;;5.88;2.67;;;;;;;24.30;29.83;95129.47;5092121;28;20494;-74
2023/10/13 14:02:35;;;;;;;8.98;3.20;;;;;;;24.31;29.26;95132.94;5090206;28;20024;-75
2023/10/13 14:05:02;;;;;;;6.15;2.55;;;;;;;24.10;28.84;95120.69;5075280;28;20115;-73
2023/10/13 14:07:32;;;;;;;9.60;2.53;;;;;;;24.27;29.18;95137.84;5071895;28;20071;-74
2023/10/13 14:10:06;;;;;;;7.35;2.70;;;;;;;24.34;29.40;95135.19;5090396;28;20039;-75
2023/10/13 14:12:44;;;;;;;9.13;2.63;;;;;;;24.15;29.36;95135.97;5075625;28;20024;-73
2023/10/13 14:15:23;;;;;;;6.38;2.70;;;;;;;24.24;29.54;95129.47;5090980;28;20036;-74
2023/10/13 14:17:49;;;;;;;7.15;2.83;;;;;;;24.06;29.40;95103.53;5076389;28;20031;-75
2023/10/13 14:20:24;;;;;;;4.35;2.60;;;;;;;24.13;31.05;95132.75;5090743;28;20036;-74
2023/10/13 14:22:52;;;;;;;6.85;2.83;;;;;;;24.20;31.53;95131.69;5071118;28;20495;-73
2023/10/13 14:25:17;;;;;;;5.70;4.28;;;;;;;24.13;31.89;95128.25;5070503;28;20123;-71
2023/10/13 14:27:43;;;;;;;9.40;4.05;;;;;;;24.04;32.57;95122.31;5079630;28;20032;-72
2023/10/13 14:30:08;;;;;;;7.65;3.08;;;;;;;23.78;31.28;95098.41;5090483;28;20081;-71
2023/10/13 14:32:40;;;;;;;10.98;3.20;;;;;;;23.91;31.33;95129.44;5081393;28;20032;-71
2023/10/13 14:35:14;;;;;;;6.85;2.85;;;;;;;23.75;31.66;95120.03;5054765;28;20033;-71
2023/10/13 14:37:40;;;;;;;7.45;3.05;;;;;;;23.82;30.37;95124.34;5055112;28;20038;-72
2023/10/13 14:40:12;;;;;;;7.75;2.97;;;;;;;23.95;32.92;95131.47;5088810;28;20028;-69
2023/10/13 14:42:40;;;;;;;6.22;2.83;;;;;;;23.57;34.24;95097.53;5081723;28;20087;-72
2023/10/13 14:45:12;;;;;;;5.88;2.78;;;;;;;23.69;34.80;95118.16;5057545;28;20032;-73
2023/10/13 14:47:39;;;;;;;5.60;2.75;;;;;;;23.48;35.34;95127.88;5062485;28;20040;-72
2023/10/13 14:50:05;;;;;;;7.20;2.70;;;;;;;23.39;35.63;95126.44;5074715;28;20031;-71
2023/10/13 14:52:33;;;;;;;6.38;2.70;;;;;;;23.23;36.01;95108.22;5071767;28;20040;-71
2023/10/13 14:54:58;;;;;;;13.45;4.20;;;;;;;23.15;35.99;95125.09;5071693;28;20031;-74
2023/10/13 14:57:24;;;;;;;13.30;7.97;;;;;;;22.65;36.76;95090.81;5090072;28;20028;-76
2023/10/13 14:59:53;;;;;;;6.97;3.30;;;;;;;22.63;36.64;95119.31;5075358;28;20174;-78
2023/10/13 15:02:19;;;;;;;5.07;2.70;;;;;;;22.25;36.67;95114.34;5090057;28;20050;-77
2023/10/13 15:04:48;;;;;;;7.95;2.80;;;;;;;22.24;36.82;95123.31;5065377;28;20099;-77
2023/10/13 15:07:14;;;;;;;7.13;2.67;;;;;;;21.93;37.24;95120.19;5071041;28;20039;-77
2023/10/13 15:09:42;;;;;;;6.57;2.80;;;;;;;21.81;38.27;95125.13;5053333;28;20024;-77
2023/10/13 15:12:10;;;;;;;7.55;2.65;;;;;;;21.57;37.98;95110.47;5070853;28;20031;-75
2023/10/13 15:14:39;;;;;;;8.07;2.83;;;;;;;21.35;38.81;95120.97;5053381;28;20032;-74
2023/10/13 15:17:06;;;;;;;5.53;2.47;;;;;;;21.22;38.70;95128.75;5045885;28;20119;-73
2023/10/13 15:19:38;;;;;;;7.40;2.55;;;;;;;21.08;39.49;95137.50;5073194;28;20032;-73
2023/10/13 15:22:06;;;;;;;5.75;2.53;;;;;;;20.91;38.53;95127.13;5091015;28;20115;-73
2023/10/13 15:24:42;;;;;;;7.75;2.40;;;;;;;20.78;40.64;95137.50;5089855;28;20082;-72
2023/10/13 15:27:08;;;;;;;5.93;2.38;;;;;;;20.76;38.04;95144.81;5087237;28;20405;-74
2023/10/13 15:29:36;;;;;;;4.60;2.60;;;;;;;20.57;40.54;95129.50;5072533;28;20025;-78
2023/10/13 15:34:27;;;;;;;7.43;2.10;;;;;;;20.25;40.11;95137.53;5087493;28;20039;-73